Time;durP1;ratioP1;P1;durP2;ratioP2;P2;SDS_P1;SDS_P2;PMS_P1;PMS_P2;Temp;Humidity;BMP_temperature;BMP_pressure;BME280_temperature;BME280_humidity;BME280_pressure;Samples;Min_cycle;Max_cycle;Signal;HPM_P1;HPM_P2
2022/03/15 00:00:52;;;;;;;8.48;3.97;;;;;;;;;;6220477;28;20113;-80
2022/03/15 00:03:54;;;;;;;9.63;4.47;;;;;;;;;;6239165;28;20046;-80
2022/03/15 00:06:56;;;;;;;7.38;3.88;;;;;;;;;;6228604;28;20050;-82
2022/03/15 00:10:00;;;;;;;8.70;4.38;;;;;;;;;;6213909;28;20557;-79
2022/03/15 00:13:02;;;;;;;9.35;3.53;;;;;;;;;;6216700;28;20418;-81
2022/03/15 00:16:10;;;;;;;8.98;4.15;;;;;;;;;;6220671;28;20079;-79
2022/03/15 00:19:13;;;;;;;7.85;4.20;;;;;;;;;;6230664;28;20499;-81
2022/03/15 00:22:15;;;;;;;8.27;4.10;;;;;;;;;;6209694;28;20046;-81
2022/03/15 00:25:18;;;;;;;7.70;4.30;;;;;;;;;;6231260;28;20041;-82
2022/03/15 00:28:22;;;;;;;8.45;3.83;;;;;;;;;;6222123;28;20615;-81
2022/03/15 00:31:23;;;;;;;6.97;3.63;;;;;;;;;;6243677;28;20491;-81
2022/03/15 00:34:25;;;;;;;7.50;4.03;;;;;;;;;;6243578;28;20045;-81
2022/03/15 00:37:27;;;;;;;8.38;4.30;;;;;;;;;;6226162;28;20046;-80
2022/03/15 00:40:29;;;;;;;8.15;3.90;;;;;;;;;;6241777;28;20045;-78
2022/03/15 00:43:31;;;;;;;6.20;3.90;;;;;;;;;;6231511;28;20129;-80
2022/03/15 00:46:32;;;;;;;7.60;4.43;;;;;;;;;;6221409;28;20045;-81
2022/03/15 00:49:35;;;;;;;6.35;4.38;;;;;;;;;;6246434;28;20048;-81
2022/03/15 00:52:37;;;;;;;7.60;4.25;;;;;;;;;;6243497;28;20160;-82
2022/03/15 00:55:39;;;;;;;6.47;4.07;;;;;;;;;;6243301;28;20061;-81
2022/03/15 00:58:40;;;;;;;7.05;4.20;;;;;;;;;;6227273;28;20122;-81
2022/03/15 01:01:43;;;;;;;7.45;3.88;;;;;;;;;;6217760;28;20104;-82
2022/03/15 01:04:45;;;;;;;8.43;3.70;;;;;;;;;;6219659;28;20049;-81
2022/03/15 01:07:46;;;;;;;7.88;3.55;;;;;;;;;;6217836;28;20177;-80
2022/03/15 01:10:49;;;;;;;6.82;3.83;;;;;;;;;;6217916;28;20215;-82
2022/03/15 01:13:50;;;;;;;7.95;3.75;;;;;;;;;;6218476;28;20132;-80
2022/03/15 01:16:54;;;;;;;7.05;4.43;;;;;;;;;;6243407;28;20105;-81
2022/03/15 01:19:55;;;;;;;;;;;;;;;;;;6260565;28;20042;-79
2022/03/15 01:22:57;;;;;;;6.35;3.53;;;;;;;;;;6264747;28;20008;-80
2022/03/15 01:25:58;;;;;;;5.47;3.25;;;;;;;;;;6225310;28;20136;-80
2022/03/15 01:29:01;;;;;;;6.78;3.90;;;;;;;;;;6220380;28;20050;-82
2022/03/15 01:32:06;;;;;;;5.57;3.80;;;;;;;;;;6202721;28;20052;-81
2022/03/15 01:35:08;;;;;;;6.68;4.30;;;;;;;;;;6219703;28;20264;-81
2022/03/15 01:38:10;;;;;;;8.10;3.67;;;;;;;;;;6219370;28;20096;-82
2022/03/15 01:41:12;;;;;;;7.10;3.90;;;;;;;;;;6201136;28;20046;-81
2022/03/15 01:44:17;;;;;;;7.75;3.42;;;;;;;;;;6220186;28;20046;-80
2022/03/15 01:47:19;;;;;;;7.05;3.55;;;;;;;;;;6249733;28;20690;-81
2022/03/15 01:50:21;;;;;;;6.85;4.18;;;;;;;;;;6240264;28;20100;-79
2022/03/15 01:53:22;;;;;;;7.53;4.07;;;;;;;;;;6216635;28;20061;-81
2022/03/15 01:56:24;;;;;;;8.57;4.03;;;;;;;;;;6214137;28;20046;-80
2022/03/15 01:59:26;;;;;;;8.45;4.22;;;;;;;;;;6217218;28;20059;-80
2022/03/15 02:02:29;;;;;;;6.68;4.07;;;;;;;;;;6214789;28;20046;-81
2022/03/15 02:05:31;;;;;;;6.13;3.92;;;;;;;;;;6218668;28;20532;-81
2022/03/15 02:08:33;;;;;;;8.23;4.15;;;;;;;;;;6216423;28;20062;-80
2022/03/15 02:11:35;;;;;;;7.20;4.00;;;;;;;;;;6244793;28;20045;-81
2022/03/15 02:14:37;;;;;;;6.57;3.50;;;;;;;;;;6242467;28;20033;-80
2022/03/15 02:17:39;;;;;;;8.98;3.80;;;;;;;;;;6243241;28;20050;-82
2022/03/15 02:20:41;;;;;;;6.38;3.78;;;;;;;;;;6230528;28;20037;-79
2022/03/15 02:23:42;;;;;;;7.60;4.57;;;;;;;;;;6248737;28;20115;-82
2022/03/15 02:26:44;;;;;;;6.43;3.92;;;;;;;;;;6217756;28;20495;-81
2022/03/15 02:29:46;;;;;;;7.30;3.70;;;;;;;;;;6238406;28;20049;-78
2022/03/15 02:32:48;;;;;;;4.82;3.25;;;;;;;;;;6240127;28;20065;-79
2022/03/15 02:35:49;;;;;;;6.88;3.70;;;;;;;;;;6241710;28;20093;-79
2022/03/15 02:38:51;;;;;;;6.30;3.50;;;;;;;;;;6231632;28;20059;-83
2022/03/15 02:41:53;;;;;;;6.32;3.55;;;;;;;;;;6240294;28;20052;-82
2022/03/15 02:44:55;;;;;;;9.15;3.72;;;;;;;;;;6217939;28;20064;-81
2022/03/15 02:47:58;;;;;;;6.17;3.23;;;;;;;;;;6218442;28;20588;-80
2022/03/15 02:51:01;;;;;;;6.85;3.53;;;;;;;;;;6231567;28;20133;-80
2022/03/15 02:54:08;;;;;;;6.85;3.92;;;;;;;;;;6216880;28;20137;-78
2022/03/15 02:57:10;;;;;;;7.07;3.65;;;;;;;;;;6233968;28;20045;-79
2022/03/15 03:00:15;;;;;;;6.65;3.40;;;;;;;;;;6217856;28;20041;-81
2022/03/15 03:03:17;;;;;;;6.35;3.95;;;;;;;;;;6200527;28;20089;-81
2022/03/15 03:06:19;;;;;;;7.20;3.72;;;;;;;;;;6218401;28;20173;-81
2022/03/15 03:09:20;;;;;;;7.60;4.25;;;;;;;;;;6274656;28;20489;-79
2022/03/15 03:12:24;;;;;;;6.22;3.80;;;;;;;;;;6236464;28;20549;-80
2022/03/15 03:15:27;;;;;;;5.95;3.65;;;;;;;;;;6242193;28;20072;-81
2022/03/15 03:18:32;;;;;;;7.43;4.22;;;;;;;;;;6244332;28;20103;-80
2022/03/15 03:21:36;;;;;;;5.25;3.10;;;;;;;;;;6237691;28;20614;-80
2022/03/15 03:24:38;;;;;;;7.97;3.38;;;;;;;;;;6220785;28;20115;-79
2022/03/15 03:27:39;;;;;;;5.45;3.28;;;;;;;;;;6219232;28;20038;-81
2022/03/15 03:30:47;;;;;;;9.32;3.35;;;;;;;;;;6219999;28;20069;-78
2022/03/15 03:33:49;;;;;;;10.88;3.92;;;;;;;;;;6217447;28;20092;-80
2022/03/15 03:36:51;;;;;;;6.10;3.50;;;;;;;;;;6220410;28;20037;-81
2022/03/15 03:39:59;;;;;;;6.50;3.63;;;;;;;;;;6218452;28;20049;-80
2022/03/15 03:43:01;;;;;;;9.25;3.78;;;;;;;;;;6218398;28;20504;-81
2022/03/15 03:46:03;;;;;;;9.85;3.80;;;;;;;;;;6227215;28;20046;-81
2022/03/15 03:49:05;;;;;;;7.25;3.28;;;;;;;;;;6242881;28;20038;-81
2022/03/15 03:52:07;;;;;;;6.30;4.05;;;;;;;;;;6240676;28;20050;-79
2022/03/15 03:55:09;;;;;;;7.07;4.20;;;;;;;;;;6221115;28;20069;-78
2022/03/15 03:58:11;;;;;;;8.38;4.43;;;;;;;;;;6235796;28;20053;-81
2022/03/15 04:01:13;;;;;;;8.02;3.97;;;;;;;;;;6218508;28;20046;-80
2022/03/15 04:04:14;;;;;;;8.85;4.57;;;;;;;;;;6218123;28;20048;-77
2022/03/15 04:07:16;;;;;;;6.50;3.92;;;;;;;;;;6252155;28;20076;-80
2022/03/15 04:10:21;;;;;;;7.57;3.95;;;;;;;;;;6221840;28;20124;-78
2022/03/15 04:13:23;;;;;;;13.90;4.47;;;;;;;;;;6254590;28;20046;-81
2022/03/15 04:16:26;;;;;;;7.97;4.57;;;;;;;;;;6226622;28;20061;-80
2022/03/15 04:19:27;;;;;;;6.33;4.00;;;;;;;;;;6240594;28;20049;-78
2022/03/15 04:22:30;;;;;;;6.30;3.85;;;;;;;;;;6225816;28;20129;-77
2022/03/15 04:25:32;;;;;;;7.72;3.78;;;;;;;;;;6225306;28;20133;-78
2022/03/15 04:28:33;;;;;;;8.20;4.68;;;;;;;;;;6225380;28;20048;-80
2022/03/15 04:31:35;;;;;;;7.38;4.75;;;;;;;;;;6223790;28;20565;-81
2022/03/15 04:34:37;;;;;;;9.98;5.00;;;;;;;;;;6222254;28;20292;-79
2022/03/15 04:37:38;;;;;;;11.23;4.88;;;;;;;;;;6221723;28;20124;-77
2022/03/15 04:40:41;;;;;;;9.85;4.72;;;;;;;;;;6223878;28;20042;-82
2022/03/15 04:43:42;;;;;;;6.97;4.47;;;;;;;;;;6222000;28;20050;-82
2022/03/15 04:46:44;;;;;;;7.05;4.10;;;;;;;;;;6224265;28;20092;-82
2022/03/15 04:49:46;;;;;;;9.00;3.35;;;;;;;;;;6247917;28;20060;-81
2022/03/15 04:52:48;;;;;;;5.65;3.58;;;;;;;;;;6237582;28;20129;-80
2022/03/15 04:55:49;;;;;;;10.77;3.70;;;;;;;;;;6222189;28;20046;-81
2022/03/15 04:58:51;;;;;;;11.02;4.47;;;;;;;;;;6218883;28;20125;-81
2022/03/15 05:01:53;;;;;;;7.60;3.58;;;;;;;;;;6220603;28;20069;-81
2022/03/15 05:04:54;;;;;;;6.35;3.65;;;;;;;;;;6223952;28;20065;-79
2022/03/15 05:07:56;;;;;;;6.90;4.20;;;;;;;;;;6274585;28;20047;-81
2022/03/15 05:11:07;;;;;;;8.82;4.18;;;;;;;;;;6248911;28;20128;-80
2022/03/15 05:14:08;;;;;;;8.68;4.00;;;;;;;;;;6204555;28;20121;-81
2022/03/15 05:17:10;;;;;;;6.32;4.25;;;;;;;;;;6223738;28;20048;-82
2022/03/15 05:20:12;;;;;;;9.02;4.25;;;;;;;;;;6225074;28;20479;-80
2022/03/15 05:23:13;;;;;;;10.30;4.90;;;;;;;;;;6226542;28;20049;-81
2022/03/15 05:26:16;;;;;;;8.73;4.60;;;;;;;;;;6229588;28;20098;-82
2022/03/15 05:29:18;;;;;;;8.98;4.80;;;;;;;;;;6227844;28;20156;-80
2022/03/15 05:32:19;;;;;;;11.43;5.22;;;;;;;;;;6234561;28;20378;-81
2022/03/15 05:35:21;;;;;;;9.52;4.78;;;;;;;;;;6239517;28;20105;-79
2022/03/15 05:38:28;;;;;;;13.80;8.07;;;;;;;;;;6206362;28;20073;-81
2022/03/15 05:41:29;;;;;;;11.75;6.55;;;;;;;;;;6235428;28;20535;-81
2022/03/15 05:44:31;;;;;;;10.27;6.03;;;;;;;;;;6221866;28;20077;-79
2022/03/15 05:47:33;;;;;;;11.85;6.38;;;;;;;;;;6216269;28;20121;-78
2022/03/15 05:50:35;;;;;;;10.75;5.35;;;;;;;;;;6233373;28;20108;-81
2022/03/15 05:53:36;;;;;;;11.02;5.18;;;;;;;;;;6220039;28;20070;-80
2022/03/15 05:56:39;;;;;;;9.45;4.95;;;;;;;;;;6218130;28;20046;-81
2022/03/15 05:59:41;;;;;;;9.45;6.03;;;;;;;;;;6235338;28;20296;-79
2022/03/15 06:02:43;;;;;;;11.00;4.95;;;;;;;;;;6238346;28;20187;-77
2022/03/15 06:05:45;;;;;;;13.15;6.93;;;;;;;;;;6240506;28;20169;-81
2022/03/15 06:08:48;;;;;;;10.85;6.85;;;;;;;;;;6239026;28;20042;-79
2022/03/15 06:11:51;;;;;;;13.98;7.50;;;;;;;;;;6214248;28;20050;-78
2022/03/15 06:14:53;;;;;;;10.93;6.28;;;;;;;;;;6223862;28;20072;-79
2022/03/15 06:18:00;;;;;;;12.95;6.60;;;;;;;;;;6214029;28;20132;-78
2022/03/15 06:21:03;;;;;;;17.77;8.52;;;;;;;;;;6213700;28;20046;-78
2022/03/15 06:24:05;;;;;;;15.07;8.90;;;;;;;;;;6238492;28;20212;-79
2022/03/15 06:27:09;;;;;;;16.23;9.40;;;;;;;;;;6236742;28;20093;-77
2022/03/15 06:30:12;;;;;;;16.05;10.40;;;;;;;;;;6215264;28;20061;-79
2022/03/15 06:33:14;;;;;;;11.95;7.38;;;;;;;;;;6222450;28;20116;-77
2022/03/15 06:36:19;;;;;;;12.38;6.70;;;;;;;;;;6230201;28;20049;-78
2022/03/15 06:39:20;;;;;;;12.60;5.45;;;;;;;;;;6231463;28;20128;-79
2022/03/15 06:42:22;;;;;;;8.63;4.60;;;;;;;;;;6218090;28;20487;-78
2022/03/15 06:45:24;;;;;;;11.05;5.20;;;;;;;;;;6217718;28;20140;-80
2022/03/15 06:48:26;;;;;;;13.38;6.28;;;;;;;;;;6215640;28;20053;-78
2022/03/15 06:51:27;;;;;;;11.27;5.78;;;;;;;;;;6203646;28;20120;-79
2022/03/15 06:54:32;;;;;;;9.25;6.25;;;;;;;;;;6213740;28;20045;-80
2022/03/15 06:57:34;;;;;;;11.25;6.07;;;;;;;;;;6213179;28;20610;-80
2022/03/15 07:00:36;;;;;;;14.02;6.78;;;;;;;;;;6215060;28;20058;-79
2022/03/15 07:03:38;;;;;;;13.90;7.05;;;;;;;;;;6224495;28;20045;-79
2022/03/15 07:06:40;;;;;;;12.30;7.78;;;;;;;;;;6217742;28;20038;-78
2022/03/15 07:09:42;;;;;;;13.32;7.97;;;;;;;;;;6214511;28;20128;-76
2022/03/15 07:12:44;;;;;;;15.63;8.27;;;;;;;;;;6206371;28;20041;-80
2022/03/15 07:15:45;;;;;;;15.02;8.35;;;;;;;;;;6205732;28;20041;-80
2022/03/15 07:18:47;;;;;;;11.10;7.32;;;;;;;;;;6238093;28;20550;-81
2022/03/15 07:21:49;;;;;;;11.27;7.18;;;;;;;;;;6234356;28;20786;-81
2022/03/15 07:24:51;;;;;;;14.32;8.07;;;;;;;;;;6236701;28;20129;-81
2022/03/15 07:27:53;;;;;;;20.17;12.20;;;;;;;;;;6228160;28;20132;-77
2022/03/15 07:30:54;;;;;;;15.90;9.50;;;;;;;;;;6209933;28;20585;-80
2022/03/15 07:33:57;;;;;;;;;;;;;;;;;;6214684;28;20049;-79
2022/03/15 07:36:59;;;;;;;15.23;7.18;;;;;;;;;;6224421;28;19932;-80
2022/03/15 07:40:02;;;;;;;13.30;8.30;;;;;;;;;;6236529;28;20244;-80
2022/03/15 07:43:04;;;;;;;;;;;;;;;;;;6227145;28;20042;-79
2022/03/15 07:46:07;;;;;;;14.07;6.85;;;;;;;;;;6253286;28;19928;-80
2022/03/15 07:49:09;;;;;;;13.68;6.07;;;;;;;;;;6221371;28;20057;-80
2022/03/15 07:52:13;;;;;;;19.27;8.45;;;;;;;;;;6216804;28;20176;-79
2022/03/15 07:55:15;;;;;;;24.17;8.95;;;;;;;;;;6240969;28;20041;-78
2022/03/15 07:58:16;;;;;;;12.48;6.55;;;;;;;;;;6212042;28;20065;-80
2022/03/15 08:01:19;;;;;;;13.18;6.35;;;;;;;;;;6195834;28;20092;-78
2022/03/15 08:04:21;;;;;;;13.55;7.00;;;;;;;;;;6197960;28;20046;-80
2022/03/15 08:07:22;;;;;;;12.32;6.18;;;;;;;;;;6245084;28;20060;-78
2022/03/15 08:10:25;;;;;;;13.73;6.53;;;;;;;;;;6259111;28;20060;-78
2022/03/15 08:13:26;;;;;;;19.13;10.32;;;;;;;;;;6243700;28;20053;-80
2022/03/15 08:16:30;;;;;;;66.80;34.75;;;;;;;;;;6242759;28;20510;-80
2022/03/15 08:19:32;;;;;;;36.03;19.10;;;;;;;;;;6218330;28;20058;-81
2022/03/15 08:22:35;;;;;;;21.00;10.90;;;;;;;;;;6225087;28;20092;-80
2022/03/15 08:25:37;;;;;;;;;;;;;;;;;;6229854;28;20529;-79
2022/03/15 08:28:39;;;;;;;14.93;8.73;;;;;;;;;;6225256;28;19928;-80
2022/03/15 08:31:41;;;;;;;18.10;8.27;;;;;;;;;;6242054;28;20138;-80
2022/03/15 08:34:45;;;;;;;10.25;5.05;;;;;;;;;;6242154;28;20065;-80
2022/03/15 08:37:50;;;;;;;13.23;6.80;;;;;;;;;;6223487;28;20136;-80
2022/03/15 08:40:52;;;;;;;15.18;6.68;;;;;;;;;;6240532;28;20042;-80
2022/03/15 08:43:57;;;;;;;11.38;6.20;;;;;;;;;;6222884;28;20040;-79
2022/03/15 08:46:59;;;;;;;12.40;6.63;;;;;;;;;;6229516;28;20042;-79
2022/03/15 08:50:01;;;;;;;13.68;6.07;;;;;;;;;;6241391;28;20053;-79
2022/03/15 08:53:03;;;;;;;11.25;5.93;;;;;;;;;;6229370;28;20089;-78
2022/03/15 08:56:06;;;;;;;10.07;5.65;;;;;;;;;;6227475;28;20076;-80
2022/03/15 08:59:12;;;;;;;14.02;6.30;;;;;;;;;;6236967;28;20049;-79
2022/03/15 09:02:15;;;;;;;12.50;5.88;;;;;;;;;;6241223;28;20200;-77
2022/03/15 09:05:19;;;;;;;11.48;6.20;;;;;;;;;;6232906;28;20052;-79
2022/03/15 09:08:21;;;;;;;10.05;6.38;;;;;;;;;;6239443;28;20037;-79
2022/03/15 09:11:22;;;;;;;14.15;7.18;;;;;;;;;;6242418;28;20037;-78
2022/03/15 09:14:24;;;;;;;12.55;6.55;;;;;;;;;;6221736;28;20156;-80
2022/03/15 09:17:26;;;;;;;11.27;6.55;;;;;;;;;;6241581;28;20501;-79
2022/03/15 09:20:49;;;;;;;18.48;7.00;;;;;;;;;;6237576;28;20048;-79
2022/03/15 09:23:51;;;;;;;15.88;6.90;;;;;;;;;;6242267;28;20095;-79
2022/03/15 09:26:53;;;;;;;12.07;6.40;;;;;;;;;;6231363;28;20453;-79
2022/03/15 09:29:55;;;;;;;15.32;6.97;;;;;;;;;;6236581;28;20041;-79
2022/03/15 09:32:59;;;;;;;13.32;6.93;;;;;;;;;;6240820;28;20617;-79
2022/03/15 09:36:01;;;;;;;11.98;6.82;;;;;;;;;;6222353;28;20112;-80
2022/03/15 09:39:07;;;;;;;12.45;6.70;;;;;;;;;;6241939;28;20118;-79
2022/03/15 09:42:10;;;;;;;15.95;7.18;;;;;;;;;;6238018;28;20263;-78
2022/03/15 09:45:13;;;;;;;14.68;7.55;;;;;;;;;;6213965;28;20084;-79
2022/03/15 09:48:18;;;;;;;14.63;6.72;;;;;;;;;;6235801;28;20045;-78
2022/03/15 09:51:21;;;;;;;15.00;6.85;;;;;;;;;;6235950;28;20136;-79
2022/03/15 09:54:26;;;;;;;12.82;6.75;;;;;;;;;;6233950;28;20068;-78
2022/03/15 09:57:28;;;;;;;15.35;7.30;;;;;;;;;;6214178;28;20069;-79
2022/03/15 10:00:30;;;;;;;10.93;5.88;;;;;;;;;;6211407;28;20128;-79
2022/03/15 10:03:32;;;;;;;13.07;6.05;;;;;;;;;;6212972;28;20442;-79
2022/03/15 10:06:36;;;;;;;9.48;5.57;;;;;;;;;;6210378;28;20049;-78
2022/03/15 10:09:39;;;;;;;12.13;5.97;;;;;;;;;;6213064;28;20486;-77
2022/03/15 10:12:40;;;;;;;9.57;6.27;;;;;;;;;;6218353;28;20077;-80
2022/03/15 10:15:59;;;;;;;14.63;6.10;;;;;;;;;;6237534;28;20519;-79
2022/03/15 10:19:03;;;;;;;13.18;6.93;;;;;;;;;;6236569;28;20045;-79
2022/03/15 10:22:08;;;;;;;19.50;7.60;;;;;;;;;;6218790;28;20088;-78
2022/03/15 10:25:10;;;;;;;13.55;6.53;;;;;;;;;;6211468;28;20663;-79
2022/03/15 10:28:13;;;;;;;15.05;6.35;;;;;;;;;;6211077;28;20128;-78
2022/03/15 10:31:17;;;;;;;11.40;5.88;;;;;;;;;;6211977;28;20042;-78
2022/03/15 10:34:19;;;;;;;14.48;6.22;;;;;;;;;;6212885;28;20487;-79
2022/03/15 10:37:31;;;;;;;13.90;6.47;;;;;;;;;;6212081;28;20069;-80
2022/03/15 10:40:43;;;;;;;16.17;6.70;;;;;;;;;;6210611;28;20055;-78
2022/03/15 10:43:53;;;;;;;12.37;6.27;;;;;;;;;;6212516;28;20049;-82
2022/03/15 10:47:12;;;;;;;11.73;5.53;;;;;;;;;;6225386;28;20053;-79
2022/03/15 10:50:16;;;;;;;16.60;6.45;;;;;;;;;;6232003;28;20121;-78
2022/03/15 10:53:19;;;;;;;14.02;7.30;;;;;;;;;;6209847;28;20069;-78
2022/03/15 10:56:23;;;;;;;13.73;6.57;;;;;;;;;;6211352;28;20413;-78
2022/03/15 10:59:25;;;;;;;19.20;7.85;;;;;;;;;;6213071;28;20053;-78
2022/03/15 11:02:30;;;;;;;13.35;6.63;;;;;;;;;;6224279;28;20049;-77
2022/03/15 11:05:34;;;;;;;16.83;6.82;;;;;;;;;;6240819;28;20050;-78
2022/03/15 11:08:36;;;;;;;13.77;6.78;;;;;;;;;;6209091;28;20125;-79
2022/03/15 11:11:38;;;;;;;16.30;6.45;;;;;;;;;;6208739;28;20045;-78
2022/03/15 11:14:47;;;;;;;15.93;7.85;;;;;;;;;;6208708;28;20106;-77
2022/03/15 11:17:59;;;;;;;16.25;6.45;;;;;;;;;;6209107;28;20044;-78
2022/03/15 11:21:02;;;;;;;16.33;6.68;;;;;;;;;;6209849;28;20873;-78
2022/03/15 11:24:09;;;;;;;23.73;7.57;;;;;;;;;;6211402;28;20409;-79
2022/03/15 11:27:15;;;;;;;16.15;6.97;;;;;;;;;;6207491;28;20046;-80
2022/03/15 11:30:19;;;;;;;16.40;7.07;;;;;;;;;;6211409;28;20045;-77
2022/03/15 11:33:21;;;;;;;16.85;8.30;;;;;;;;;;6210293;28;20054;-79
2022/03/15 11:36:26;;;;;;;15.45;8.80;;;;;;;;;;6220429;28;20045;-77
2022/03/15 11:39:29;;;;;;;17.48;9.15;;;;;;;;;;6234689;28;20117;-77
2022/03/15 11:42:32;;;;;;;19.63;9.65;;;;;;;;;;6228909;28;20052;-78
2022/03/15 11:45:42;;;;;;;21.73;9.88;;;;;;;;;;6210220;28;20050;-80
2022/03/15 11:48:55;;;;;;;21.60;10.95;;;;;;;;;;6231215;28;20124;-77
2022/03/15 11:52:01;;;;;;;21.98;11.70;;;;;;;;;;6231065;28;20080;-78
2022/03/15 11:55:30;;;;;;;17.85;10.02;;;;;;;;;;6232723;28;20857;-79
2022/03/15 11:58:32;;;;;;;23.02;10.95;;;;;;;;;;6231549;28;20064;-77
2022/03/15 12:01:51;;;;;;;23.52;14.90;;;;;;;;;;6232732;28;20064;-78
2022/03/15 12:04:53;;;;;;;25.67;15.88;;;;;;;;;;6233721;28;20128;-80
2022/03/15 12:08:13;;;;;;;26.77;15.50;;;;;;;;;;6214270;28;20050;-79
2022/03/15 12:11:26;;;;;;;25.83;14.77;;;;;;;;;;6183516;28;20182;-79
2022/03/15 12:14:43;;;;;;;32.60;17.80;;;;;;;;;;6222273;28;20091;-77
2022/03/15 12:17:44;;;;;;;31.42;17.25;;;;;;;;;;6222927;28;20252;-78
2022/03/15 12:21:02;;;;;;;26.23;14.15;;;;;;;;;;6232811;28;20053;-80
2022/03/15 12:24:04;;;;;;;18.15;10.20;;;;;;;;;;6227151;28;20447;-79
2022/03/15 12:27:09;;;;;;;15.68;8.70;;;;;;;;;;6208403;28;20053;-80
2022/03/15 12:30:18;;;;;;;15.88;7.90;;;;;;;;;;6206702;28;20498;-78
2022/03/15 12:33:26;;;;;;;19.50;7.68;;;;;;;;;;6208412;28;20042;-79
2022/03/15 12:36:50;;;;;;;14.77;7.80;;;;;;;;;;6210508;28;20188;-80
2022/03/15 12:39:56;;;;;;;12.18;6.85;;;;;;;;;;6211835;28;20104;-79
2022/03/15 12:43:01;;;;;;;13.07;7.55;;;;;;;;;;6222042;28;20635;-79
2022/03/15 12:46:05;;;;;;;16.52;7.50;;;;;;;;;;6238178;28;20109;-80
2022/03/15 12:49:16;;;;;;;15.73;7.72;;;;;;;;;;6226829;28;20038;-78
2022/03/15 12:52:17;;;;;;;18.90;8.23;;;;;;;;;;6210942;28;20555;-78
2022/03/15 12:55:20;;;;;;;;;;;;;;;;;;6216559;28;20127;-81
2022/03/15 12:58:22;;;;;;;17.25;8.80;;;;;;;;;;6228436;28;20000;-79
2022/03/15 13:01:25;;;;;;;15.43;8.32;;;;;;;;;;6217586;28;20136;-79
2022/03/15 13:04:30;;;;;;;17.35;8.27;;;;;;;;;;6232272;28;20498;-80
2022/03/15 13:07:33;;;;;;;17.90;9.15;;;;;;;;;;6238921;28;20045;-79
2022/03/15 13:10:42;;;;;;;18.15;9.02;;;;;;;;;;6239691;28;20513;-79
2022/03/15 13:13:46;;;;;;;16.27;8.63;;;;;;;;;;6226548;28;20050;-81
2022/03/15 13:16:48;;;;;;;16.17;7.80;;;;;;;;;;6231562;28;20507;-80
2022/03/15 13:19:50;;;;;;;16.33;8.18;;;;;;;;;;6243075;28;20045;-79
2022/03/15 13:23:01;;;;;;;19.88;11.15;;;;;;;;;;6236046;28;20041;-80
2022/03/15 13:26:10;;;;;;;19.58;12.35;;;;;;;;;;6230814;28;20116;-78
2022/03/15 13:29:12;;;;;;;22.17;14.30;;;;;;;;;;6231649;28;20095;-78
2022/03/15 13:32:20;;;;;;;27.45;16.02;;;;;;;;;;6244693;28;20124;-79
2022/03/15 13:35:25;;;;;;;25.45;15.50;;;;;;;;;;6241441;28;20503;-78
2022/03/15 13:38:29;;;;;;;22.48;13.70;;;;;;;;;;6226433;28;20049;-79
2022/03/15 13:41:42;;;;;;;18.92;11.88;;;;;;;;;;6226946;28;20057;-79
2022/03/15 13:44:50;;;;;;;17.02;8.90;;;;;;;;;;6233106;28;20313;-77
2022/03/15 13:47:55;;;;;;;17.80;9.95;;;;;;;;;;6256023;28;20069;-79
2022/03/15 13:51:10;;;;;;;17.33;9.05;;;;;;;;;;6223638;28;20128;-78
2022/03/15 13:54:16;;;;;;;15.88;8.00;;;;;;;;;;6222431;28;20057;-80
2022/03/15 13:57:26;;;;;;;17.98;9.00;;;;;;;;;;6211352;28;20039;-80
2022/03/15 14:00:30;;;;;;;17.42;8.55;;;;;;;;;;6237484;28;20387;-79
2022/03/15 14:03:34;;;;;;;14.95;8.57;;;;;;;;;;6230582;28;20203;-78
2022/03/15 14:06:41;;;;;;;16.38;7.97;;;;;;;;;;6216966;28;20053;-78
2022/03/15 14:09:43;;;;;;;22.67;11.88;;;;;;;;;;6217852;28;20065;-80
2022/03/15 14:12:50;;;;;;;16.17;9.23;;;;;;;;;;6218905;28;20542;-78
2022/03/15 14:15:59;;;;;;;19.65;9.52;;;;;;;;;;6223452;28;20038;-76
2022/03/15 14:19:03;;;;;;;19.58;11.20;;;;;;;;;;6213129;28;20045;-77
2022/03/15 14:22:05;;;;;;;20.83;10.15;;;;;;;;;;6228061;28;20049;-79
2022/03/15 14:25:08;;;;;;;28.87;16.27;;;;;;;;;;6208440;28;20038;-79
2022/03/15 14:28:14;;;;;;;22.60;16.80;;;;;;;;;;6217221;28;20037;-77
2022/03/15 14:31:25;;;;;;;16.90;8.43;;;;;;;;;;6246522;28;20049;-81
2022/03/15 14:34:29;;;;;;;19.80;10.38;;;;;;;;;;6231983;28;20081;-79
2022/03/15 14:37:33;;;;;;;17.92;9.52;;;;;;;;;;6209548;28;20752;-81
2022/03/15 14:40:44;;;;;;;19.02;9.77;;;;;;;;;;6209008;28;20099;-80
2022/03/15 14:43:47;;;;;;;26.10;17.70;;;;;;;;;;6238969;28;20138;-80
2022/03/15 14:46:52;;;;;;;19.20;10.02;;;;;;;;;;6220984;28;20071;-79
2022/03/15 14:49:58;;;;;;;22.40;13.27;;;;;;;;;;6233120;28;20179;-80
2022/03/15 14:53:00;;;;;;;19.52;10.65;;;;;;;;;;6208429;28;20063;-79
2022/03/15 14:56:07;;;;;;;17.60;8.32;;;;;;;;;;6218501;28;20041;-80
2022/03/15 14:59:08;;;;;;;17.63;9.10;;;;;;;;;;6213888;28;20049;-78
2022/03/15 15:02:11;;;;;;;22.05;10.27;;;;;;;;;;6206887;28;20129;-79
2022/03/15 15:05:13;;;;;;;;;;;;;;;;;;6209910;28;20045;-80
2022/03/15 15:08:16;;;;;;;18.50;8.02;;;;;;;;;;6208151;28;20337;-79
2022/03/15 15:11:18;;;;;;;15.75;7.15;;;;;;;;;;6207426;28;20812;-78
2022/03/15 15:14:19;;;;;;;12.80;7.20;;;;;;;;;;6208410;28;20045;-81
2022/03/15 15:17:22;;;;;;;14.10;6.90;;;;;;;;;;6209767;28;20054;-77
2022/03/15 15:20:26;;;;;;;11.82;6.25;;;;;;;;;;6208280;28;20069;-79
2022/03/15 15:23:28;;;;;;;12.15;6.68;;;;;;;;;;6223090;28;20056;-77
2022/03/15 15:26:31;;;;;;;12.75;6.93;;;;;;;;;;6236989;28;20064;-79
2022/03/15 15:29:38;;;;;;;12.53;6.83;;;;;;;;;;6234686;28;20447;-80
2022/03/15 15:32:40;;;;;;;12.70;5.80;;;;;;;;;;6232452;28;20049;-80
2022/03/15 15:35:42;;;;;;;11.65;6.20;;;;;;;;;;6235053;28;20078;-79
2022/03/15 15:38:44;;;;;;;11.95;6.63;;;;;;;;;;6235712;28;20033;-80
2022/03/15 15:41:46;;;;;;;16.15;7.60;;;;;;;;;;6227040;28;20397;-79
2022/03/15 15:44:52;;;;;;;13.95;6.80;;;;;;;;;;6236605;28;20116;-79
2022/03/15 15:47:54;;;;;;;13.25;7.30;;;;;;;;;;6223692;28;20045;-78
2022/03/15 15:50:57;;;;;;;12.18;6.80;;;;;;;;;;6213618;28;20042;-80
2022/03/15 15:53:59;;;;;;;13.55;6.72;;;;;;;;;;6229903;28;20064;-81
2022/03/15 15:57:01;;;;;;;15.52;7.75;;;;;;;;;;6234647;28;20050;-81
2022/03/15 16:00:06;;;;;;;16.35;7.78;;;;;;;;;;6213405;28;20199;-81
2022/03/15 16:03:13;;;;;;;13.77;7.45;;;;;;;;;;6229123;28;20045;-77
2022/03/15 16:06:15;;;;;;;16.05;7.60;;;;;;;;;;6212775;28;20049;-81
2022/03/15 16:09:18;;;;;;;14.43;7.13;;;;;;;;;;6225392;28;20120;-78
2022/03/15 16:12:19;;;;;;;14.32;6.15;;;;;;;;;;6214907;28;20050;-79
2022/03/15 16:15:24;;;;;;;14.40;7.13;;;;;;;;;;6219100;28;20061;-81
2022/03/15 16:18:26;;;;;;;13.95;7.50;;;;;;;;;;6233549;28;20045;-80
2022/03/15 16:21:28;;;;;;;12.85;7.07;;;;;;;;;;6224147;28;20443;-80
2022/03/15 16:24:29;;;;;;;13.60;7.32;;;;;;;;;;6213856;28;20141;-79
2022/03/15 16:27:32;;;;;;;11.57;6.07;;;;;;;;;;6221768;28;20042;-77
2022/03/15 16:30:37;;;;;;;12.55;5.88;;;;;;;;;;6226657;28;20415;-80
2022/03/15 16:33:39;;;;;;;12.20;6.65;;;;;;;;;;6207201;28;20398;-79
2022/03/15 16:36:41;;;;;;;11.77;6.22;;;;;;;;;;6230276;28;20124;-79
2022/03/15 16:39:44;;;;;;;11.77;7.18;;;;;;;;;;6235788;28;20765;-80
2022/03/15 16:42:48;;;;;;;14.23;8.35;;;;;;;;;;6231274;28;20125;-81
2022/03/15 16:45:50;;;;;;;13.98;8.43;;;;;;;;;;6225998;28;20128;-80
2022/03/15 16:48:52;;;;;;;9.68;5.55;;;;;;;;;;6207777;28;20088;-78
2022/03/15 16:51:54;;;;;;;11.65;6.82;;;;;;;;;;6222689;28;20137;-80
2022/03/15 16:54:56;;;;;;;12.85;8.30;;;;;;;;;;6239483;28;20570;-80
2022/03/15 16:58:00;;;;;;;12.20;7.18;;;;;;;;;;6211618;28;20049;-80
2022/03/15 17:01:03;;;;;;;17.58;8.63;;;;;;;;;;6240361;28;20457;-80
2022/03/15 17:07:25;;;;;;;14.93;6.60;;;;;;;;;;6237025;28;20565;-79
2022/03/15 17:10:27;;;;;;;9.60;5.35;;;;;;;;;;6240190;28;20132;-78
2022/03/15 17:13:29;;;;;;;10.88;5.63;;;;;;;;;;6226025;28;20557;-79
2022/03/15 17:16:32;;;;;;;25.27;9.88;;;;;;;;;;6206251;28;20050;-80
2022/03/15 17:19:37;;;;;;;11.02;5.10;;;;;;;;;;6216742;28;20424;-79
2022/03/15 17:22:38;;;;;;;9.43;5.03;;;;;;;;;;6219005;28;20041;-80
2022/03/15 17:25:40;;;;;;;10.10;5.20;;;;;;;;;;6241169;28;20073;-77
2022/03/15 17:28:45;;;;;;;10.13;5.28;;;;;;;;;;6238910;28;20451;-78
2022/03/15 17:31:50;;;;;;;12.63;5.57;;;;;;;;;;6239071;28;20180;-78
2022/03/15 17:34:53;;;;;;;11.77;6.05;;;;;;;;;;6238772;28;20044;-79
2022/03/15 17:38:00;;;;;;;10.70;5.22;;;;;;;;;;6232267;28;20195;-80
2022/03/15 17:41:03;;;;;;;10.32;5.28;;;;;;;;;;6239006;28;20041;-78
2022/03/15 17:44:05;;;;;;;9.25;5.03;;;;;;;;;;6225337;28;20104;-80
2022/03/15 17:47:07;;;;;;;9.20;5.40;;;;;;;;;;6238313;28;20455;-80
2022/03/15 17:50:09;;;;;;;10.47;5.33;;;;;;;;;;6215806;28;20046;-80
2022/03/15 17:53:13;;;;;;;11.80;6.13;;;;;;;;;;6216676;28;20048;-80
2022/03/15 17:56:17;;;;;;;10.02;5.82;;;;;;;;;;6233924;28;20125;-81
2022/03/15 17:59:23;;;;;;;;;;;;;;;;;;6209500;28;20216;-80
2022/03/15 18:02:27;;;;;;;30.90;9.73;;;;;;;;;;6232129;28;19945;-79
2022/03/15 18:05:29;;;;;;;15.38;6.70;;;;;;;;;;6227335;28;20046;-77
2022/03/15 18:08:31;;;;;;;8.98;5.40;;;;;;;;;;6239004;28;20049;-78
2022/03/15 18:11:34;;;;;;;11.93;5.10;;;;;;;;;;6217865;28;20128;-77
2022/03/15 18:14:40;;;;;;;9.43;5.75;;;;;;;;;;6194615;28;20891;-78